createdAt,value
2023-05-12T00:02:00.707Z,15.05
2023-05-12T00:07:00.698Z,14.86
2023-05-12T00:12:00.709Z,14.95
2023-05-12T00:17:00.712Z,15.12
2023-05-12T00:22:00.712Z,15.13
2023-05-12T00:27:00.714Z,15.21
2023-05-12T00:32:00.705Z,15.31
2023-05-12T00:37:00.718Z,15.37
2023-05-12T00:42:00.708Z,15.45
2023-05-12T00:47:00.719Z,15.29
2023-05-12T00:52:00.722Z,15.2
2023-05-12T00:57:00.712Z,15.15
2023-05-12T01:02:00.724Z,15.18
2023-05-12T01:07:00.715Z,15.28
2023-05-12T01:12:00.726Z,15.27
2023-05-12T01:17:00.728Z,15.33
2023-05-12T01:22:00.729Z,15.32
2023-05-12T01:27:00.731Z,15.38
2023-05-12T01:32:00.722Z,15.3
2023-05-12T01:37:00.786Z,15.23
2023-05-12T01:42:00.725Z,15.29
2023-05-12T01:47:00.778Z,15.26
2023-05-12T01:52:00.739Z,15.27
2023-05-12T01:57:00.729Z,15.38
2023-05-12T02:02:00.741Z,15.44
2023-05-12T02:07:00.732Z,15.33
2023-05-12T02:12:00.745Z,15.28
2023-05-12T02:17:00.735Z,15.32
2023-05-12T02:22:00.747Z,15.29
2023-05-12T02:27:00.748Z,15.36
2023-05-12T02:32:00.739Z,15.52
2023-05-12T02:37:00.751Z,15.54
2023-05-12T02:42:00.742Z,15.54
2023-05-12T02:47:00.755Z,15.57
2023-05-12T02:52:00.755Z,15.66
2023-05-12T02:57:00.758Z,15.6
2023-05-12T03:02:00.758Z,15.57
2023-05-12T03:07:00.749Z,15.66
2023-05-12T03:12:00.762Z,15.76
2023-05-12T03:17:00.752Z,15.75
2023-05-12T03:22:00.765Z,15.6
2023-05-12T03:27:00.765Z,15.49
2023-05-12T03:32:00.757Z,15.4
2023-05-12T03:37:00.768Z,15.43
2023-05-12T03:42:00.760Z,15.75
2023-05-12T03:47:00.772Z,15.86
2023-05-12T03:52:00.773Z,15.8
2023-05-12T03:57:00.775Z,15.63
2023-05-12T04:02:00.776Z,15.57
2023-05-12T04:07:00.767Z,15.56
2023-05-12T04:12:00.778Z,15.66
2023-05-12T04:17:00.770Z,15.59
2023-05-12T04:22:00.782Z,15.65
2023-05-12T04:27:00.783Z,15.68
2023-05-12T04:32:00.773Z,15.87
2023-05-12T04:37:00.785Z,16.01
2023-05-12T04:42:00.777Z,15.85
2023-05-12T04:47:00.789Z,15.88
2023-05-12T04:52:01.666Z,15.98
2023-05-12T04:57:00.792Z,16.18
2023-05-12T05:02:00.817Z,16.02
2023-05-12T05:07:00.784Z,16.02
2023-05-12T05:12:00.800Z,16.07
2023-05-12T05:17:00.787Z,16.2
2023-05-12T05:22:00.800Z,15.98
2023-05-12T05:27:00.800Z,15.92
2023-05-12T05:32:00.803Z,15.94
2023-05-12T05:37:00.803Z,15.96
2023-05-12T05:42:00.795Z,15.81
2023-05-12T05:47:00.807Z,15.68
2023-05-12T05:52:07.682Z,15.67
2023-05-12T05:57:00.810Z,15.89
2023-05-12T06:02:00.810Z,16
2023-05-12T06:07:00.802Z,16.12
2023-05-12T06:12:00.815Z,16.42
2023-05-12T06:17:00.805Z,16.7
2023-05-12T06:22:00.817Z,16.79
2023-05-12T06:27:00.818Z,17.12
2023-05-12T06:32:00.820Z,17.08
2023-05-12T06:37:00.822Z,16.94
2023-05-12T06:42:00.812Z,16.67
2023-05-12T06:47:00.824Z,16.83
2023-05-12T06:52:13.700Z,16.99
2023-05-12T06:57:00.828Z,17.2
2023-05-12T07:02:00.830Z,17.18
2023-05-12T07:07:00.819Z,17.21
2023-05-12T07:12:00.832Z,17.16
2023-05-12T07:17:00.823Z,17.43
2023-05-12T07:22:00.836Z,18.04
2023-05-12T07:27:00.836Z,18.7
2023-05-12T07:32:00.839Z,18.84
2023-05-12T07:37:00.905Z,19.17
2023-05-12T07:42:00.832Z,19.58
2023-05-12T07:47:00.887Z,19.56
2023-05-12T07:52:19.671Z,19.53
2023-05-12T07:57:00.848Z,19.66
2023-05-12T08:02:00.849Z,19.34
2023-05-12T08:07:00.839Z,18.95
2023-05-12T08:12:00.854Z,20.02
2023-05-12T08:17:00.844Z,20.35
2023-05-12T08:22:00.857Z,20.33
2023-05-12T08:27:00.848Z,20.2
2023-05-12T08:32:00.860Z,20.27
2023-05-12T08:37:00.861Z,20.54
2023-05-12T08:42:00.853Z,20.7
2023-05-12T08:47:00.867Z,20.29
2023-05-12T08:52:25.718Z,20.34
2023-05-12T08:57:00.870Z,21.14
2023-05-12T09:02:00.871Z,21.28
2023-05-12T09:07:00.913Z,20.78
2023-05-12T09:12:00.876Z,20.59
2023-05-12T09:17:00.866Z,21.93
2023-05-12T09:22:00.879Z,22.4
2023-05-12T09:27:00.870Z,21.53
2023-05-12T09:32:00.883Z,21.65
2023-05-12T09:37:00.885Z,22.62
2023-05-12T09:42:00.876Z,22.96
2023-05-12T09:47:00.890Z,22.74
2023-05-12T09:52:15.196Z,21.96
2023-05-12T09:57:00.893Z,21.69
2023-05-12T10:02:00.894Z,21.26
2023-05-12T10:07:00.897Z,20.51
2023-05-12T10:12:00.900Z,20.57
2023-05-12T10:17:00.890Z,20.5
2023-05-12T10:22:00.903Z,20.35
2023-05-12T10:27:00.894Z,20.15
2023-05-12T10:32:00.907Z,19.92
2023-05-12T10:37:00.909Z,19.68
2023-05-12T10:42:00.899Z,19.33
2023-05-12T10:47:00.914Z,19.26
2023-05-12T10:52:15.333Z,19.09
2023-05-12T10:57:00.916Z,18.79
2023-05-12T11:02:15.348Z,18.62
2023-05-12T11:07:00.920Z,18.58
2023-05-12T11:12:17.400Z,18.69
2023-05-12T11:17:00.912Z,19.2
2023-05-12T11:22:00.925Z,19.89
2023-05-12T11:27:00.916Z,20.34
2023-05-12T11:32:00.929Z,20.2
2023-05-12T11:37:00.931Z,19.34
2023-05-12T11:42:00.921Z,18.89
2023-05-12T11:47:00.935Z,18.74
2023-05-12T11:52:00.925Z,18.37
2023-05-12T11:57:00.938Z,18.45
2023-05-12T12:02:00.938Z,18.5
2023-05-12T12:07:00.941Z,18.81
2023-05-12T12:12:00.944Z,18.95
2023-05-12T12:17:00.934Z,18.87
2023-05-12T12:22:00.945Z,18.81
2023-05-12T12:27:00.937Z,18.62
2023-05-12T12:32:00.950Z,18.02
2023-05-12T12:37:00.951Z,17.62
2023-05-12T12:42:00.941Z,17.37
2023-05-12T12:47:00.956Z,17.57
2023-05-12T12:52:00.946Z,17.87
2023-05-12T12:57:00.958Z,17.95
2023-05-12T13:02:00.949Z,17.6
2023-05-12T13:07:00.962Z,17.6
2023-05-12T13:12:00.962Z,17.73
2023-05-12T13:17:00.954Z,18.09
2023-05-12T13:22:01.032Z,18.62
2023-05-12T13:27:00.957Z,19.18
2023-05-12T13:32:01.010Z,19.79
2023-05-12T13:37:00.972Z,19.49
2023-05-12T13:42:00.974Z,19.75
2023-05-12T13:47:00.977Z,19.89
2023-05-12T13:52:00.966Z,20.23
2023-05-12T13:57:00.979Z,20.43
2023-05-12T14:02:00.970Z,20.27
2023-05-12T14:07:00.983Z,20.31
2023-05-12T14:12:00.985Z,20.62
2023-05-12T14:17:00.975Z,21.13
2023-05-12T14:22:00.989Z,21.03
2023-05-12T14:27:00.979Z,20.84
2023-05-12T14:32:00.992Z,20.57
2023-05-12T14:37:00.993Z,19.76
2023-05-12T14:42:00.996Z,19.46
2023-05-12T14:47:00.999Z,19.76
2023-05-12T14:52:00.988Z,19.85
2023-05-12T14:57:01.000Z,19.69
2023-05-12T15:02:00.992Z,19.43
2023-05-12T15:07:01.005Z,19.16
2023-05-12T15:12:01.006Z,18.43
2023-05-12T15:17:00.996Z,17.61
2023-05-12T15:22:01.009Z,17.11
2023-05-12T15:27:01.001Z,16.83
2023-05-12T15:32:01.012Z,16.25
2023-05-12T15:37:01.014Z,16.21
2023-05-12T15:42:01.015Z,16.36
2023-05-12T15:47:01.067Z,16.44
2023-05-12T15:52:01.009Z,16.48
2023-05-12T15:57:01.022Z,16.53
2023-05-12T16:02:01.012Z,16.48
2023-05-12T16:07:01.023Z,16.2
2023-05-12T16:12:01.025Z,16.08
2023-05-12T16:17:01.028Z,15.76
2023-05-12T16:22:01.030Z,15.61
2023-05-12T16:27:01.019Z,15.59
2023-05-12T16:32:01.031Z,15.74
2023-05-12T16:37:01.022Z,15.93
2023-05-12T16:42:01.034Z,16.15
2023-05-12T16:47:01.035Z,16.32
2023-05-12T16:52:01.027Z,16.51
2023-05-12T16:57:01.040Z,16.77
2023-05-12T17:02:01.030Z,16.87
2023-05-12T17:07:01.041Z,16.83
2023-05-12T17:12:01.043Z,16.79
2023-05-12T17:17:01.044Z,16.67
2023-05-12T17:22:01.046Z,16.41
2023-05-12T17:27:01.037Z,16.18
2023-05-12T17:32:01.049Z,16.24
2023-05-12T17:37:01.040Z,16.42
2023-05-12T17:42:01.052Z,16.53
2023-05-12T17:47:01.054Z,16.58
2023-05-12T17:52:01.045Z,16.54
2023-05-12T17:57:01.059Z,16.49
2023-05-12T18:02:01.048Z,16.49
2023-05-12T18:07:01.060Z,16.59
2023-05-12T18:12:01.051Z,16.62
2023-05-12T18:17:01.063Z,16.6
2023-05-12T18:22:01.064Z,16.57
2023-05-12T18:27:01.056Z,16.51
2023-05-12T18:32:01.067Z,16.46
2023-05-12T18:37:01.059Z,16.39
2023-05-12T18:42:01.112Z,16.37
2023-05-12T18:47:01.072Z,16.37
2023-05-12T18:52:01.073Z,16.37
2023-05-12T18:57:01.077Z,16.36
2023-05-12T19:02:01.066Z,16.23
2023-05-12T19:07:01.078Z,16
2023-05-12T19:12:01.069Z,15.96
2023-05-12T19:17:01.081Z,15.87
2023-05-12T19:22:01.082Z,15.76
2023-05-12T19:27:01.074Z,15.77
2023-05-12T19:32:01.087Z,15.66
2023-05-12T19:37:01.077Z,15.48
2023-05-12T19:42:01.088Z,15.53
2023-05-12T19:47:01.090Z,15.68
2023-05-12T19:52:01.091Z,15.7
2023-05-12T19:57:01.095Z,15.75
2023-05-12T20:02:01.084Z,15.84
2023-05-12T20:07:01.096Z,15.85
2023-05-12T20:12:01.087Z,15.86
2023-05-12T20:17:01.099Z,15.85
2023-05-12T20:22:01.100Z,15.86
2023-05-12T20:27:01.092Z,15.84
2023-05-12T20:32:01.103Z,15.98
2023-05-12T20:37:01.095Z,16
2023-05-12T20:42:01.106Z,15.95
2023-05-12T20:47:01.108Z,15.97
2023-05-12T20:52:01.109Z,15.91
2023-05-12T20:57:01.161Z,15.86
2023-05-12T21:02:01.102Z,15.91
2023-05-12T21:07:01.158Z,15.88
2023-05-12T21:12:01.105Z,15.62
2023-05-12T21:17:01.117Z,15.41
2023-05-12T21:22:01.118Z,15.47
2023-05-12T21:27:01.161Z,15.61
2023-05-12T21:32:01.121Z,15.72
2023-05-12T21:42:01.124Z,15.82
2023-05-12T21:47:01.115Z,15.73
2023-05-12T21:52:01.127Z,15.8
2023-05-12T21:57:01.128Z,15.91
2023-05-12T22:02:01.120Z,15.8
2023-05-12T22:07:01.133Z,15.87
2023-05-12T22:12:01.123Z,15.76
2023-05-12T22:17:01.134Z,15.5
2023-05-12T22:22:01.136Z,15.23
2023-05-12T22:27:01.137Z,15.04
2023-05-12T22:32:01.139Z,15
2023-05-12T22:37:01.130Z,14.9
2023-05-12T22:42:01.141Z,14.76
2023-05-12T22:47:01.133Z,14.68
2023-05-12T22:52:01.144Z,14.44
2023-05-12T22:57:01.146Z,14.35
2023-05-12T23:02:01.137Z,14.4
2023-05-12T23:07:01.150Z,14.49
2023-05-12T23:12:01.140Z,14.37
2023-05-12T23:17:01.151Z,14.27
2023-05-12T23:22:01.152Z,14.21
2023-05-12T23:27:01.154Z,14.17
2023-05-12T23:32:01.155Z,14.11
2023-05-12T23:37:01.146Z,14.06
2023-05-12T23:42:01.158Z,13.93
2023-05-12T23:47:01.149Z,13.86
2023-05-12T23:52:01.184Z,13.85
2023-05-12T23:57:01.162Z,13.87
